sensor_id;sensor_type;location;lat;lon;timestamp;P1;durP1;ratioP1;P2;durP2;ratioP2
49320;SDS011;35817;44.498;0.166;2022-09-09T00:01:51;5.57;;;1.08;;
49320;SDS011;35817;44.498;0.166;2022-09-09T00:04:30;5.53;;;1.30;;
49320;SDS011;35817;44.498;0.166;2022-09-09T00:09:47;4.03;;;1.35;;
49320;SDS011;35817;44.498;0.166;2022-09-09T00:14:58;5.75;;;1.20;;
49320;SDS011;35817;44.498;0.166;2022-09-09T00:17:39;3.08;;;1.15;;
49320;SDS011;35817;44.498;0.166;2022-09-09T00:20:13;3.80;;;0.93;;
49320;SDS011;35817;44.498;0.166;2022-09-09T00:22:49;3.15;;;0.90;;
49320;SDS011;35817;44.498;0.166;2022-09-09T00:25:40;2.88;;;0.95;;
49320;SDS011;35817;44.498;0.166;2022-09-09T00:28:17;8.13;;;1.15;;
49320;SDS011;35817;44.498;0.166;2022-09-09T00:30:47;3.47;;;1.30;;
49320;SDS011;35817;44.498;0.166;2022-09-09T00:33:13;3.05;;;1.20;;
49320;SDS011;35817;44.498;0.166;2022-09-09T00:35:47;1.58;;;1.02;;
49320;SDS011;35817;44.498;0.166;2022-09-09T00:38:26;1.98;;;1.30;;
49320;SDS011;35817;44.498;0.166;2022-09-09T00:41:01;2.38;;;1.10;;
49320;SDS011;35817;44.498;0.166;2022-09-09T00:43:57;4.90;;;1.30;;
49320;SDS011;35817;44.498;0.166;2022-09-09T00:52:08;7.65;;;1.48;;
49320;SDS011;35817;44.498;0.166;2022-09-09T00:57:38;5.18;;;2.10;;
49320;SDS011;35817;44.498;0.166;2022-09-09T01:02:51;3.08;;;1.48;;
49320;SDS011;35817;44.498;0.166;2022-09-09T01:08:10;2.80;;;1.90;;
49320;SDS011;35817;44.498;0.166;2022-09-09T01:10:55;3.28;;;2.10;;
49320;SDS011;35817;44.498;0.166;2022-09-09T01:13:27;8.85;;;2.83;;
49320;SDS011;35817;44.498;0.166;2022-09-09T01:15:59;3.92;;;2.90;;
49320;SDS011;35817;44.498;0.166;2022-09-09T01:18:44;4.07;;;1.63;;
49320;SDS011;35817;44.498;0.166;2022-09-09T01:28:50;5.13;;;2.40;;
49320;SDS011;35817;44.498;0.166;2022-09-09T01:31:37;3.40;;;2.08;;
49320;SDS011;35817;44.498;0.166;2022-09-09T01:34:12;4.40;;;2.22;;
49320;SDS011;35817;44.498;0.166;2022-09-09T01:39:08;5.20;;;2.15;;
49320;SDS011;35817;44.498;0.166;2022-09-09T01:41:34;5.40;;;2.13;;
49320;SDS011;35817;44.498;0.166;2022-09-09T01:44:00;2.92;;;2.15;;
49320;SDS011;35817;44.498;0.166;2022-09-09T01:46:26;4.25;;;2.03;;
49320;SDS011;35817;44.498;0.166;2022-09-09T01:48:53;6.40;;;2.08;;
49320;SDS011;35817;44.498;0.166;2022-09-09T01:51:22;6.80;;;3.13;;
49320;SDS011;35817;44.498;0.166;2022-09-09T01:53:48;5.75;;;2.58;;
49320;SDS011;35817;44.498;0.166;2022-09-09T02:01:57;3.67;;;1.92;;
49320;SDS011;35817;44.498;0.166;2022-09-09T02:04:45;2.58;;;1.23;;
49320;SDS011;35817;44.498;0.166;2022-09-09T02:09:52;2.72;;;1.55;;
49320;SDS011;35817;44.498;0.166;2022-09-09T02:12:26;4.35;;;1.40;;
49320;SDS011;35817;44.498;0.166;2022-09-09T02:14:55;8.00;;;1.60;;
49320;SDS011;35817;44.498;0.166;2022-09-09T02:17:26;3.08;;;1.20;;
49320;SDS011;35817;44.498;0.166;2022-09-09T02:20:02;5.53;;;1.52;;
49320;SDS011;35817;44.498;0.166;2022-09-09T02:22:32;3.58;;;1.13;;
49320;SDS011;35817;44.498;0.166;2022-09-09T02:24:59;8.57;;;1.83;;
49320;SDS011;35817;44.498;0.166;2022-09-09T02:27:26;5.40;;;2.03;;
49320;SDS011;35817;44.498;0.166;2022-09-09T02:29:53;5.72;;;1.98;;
49320;SDS011;35817;44.498;0.166;2022-09-09T02:32:22;6.87;;;1.80;;
49320;SDS011;35817;44.498;0.166;2022-09-09T02:34:51;4.13;;;1.58;;
49320;SDS011;35817;44.498;0.166;2022-09-09T02:37:23;2.60;;;2.28;;
49320;SDS011;35817;44.498;0.166;2022-09-09T02:39:53;7.50;;;1.85;;
49320;SDS011;35817;44.498;0.166;2022-09-09T02:42:19;3.17;;;1.85;;
49320;SDS011;35817;44.498;0.166;2022-09-09T02:44:45;2.50;;;1.02;;
49320;SDS011;35817;44.498;0.166;2022-09-09T02:47:16;3.13;;;1.80;;
49320;SDS011;35817;44.498;0.166;2022-09-09T02:52:38;3.58;;;1.30;;
49320;SDS011;35817;44.498;0.166;2022-09-09T02:57:59;6.32;;;2.13;;
49320;SDS011;35817;44.498;0.166;2022-09-09T03:00:27;7.88;;;2.40;;
49320;SDS011;35817;44.498;0.166;2022-09-09T03:02:54;7.18;;;2.28;;
49320;SDS011;35817;44.498;0.166;2022-09-09T03:05:20;3.08;;;2.15;;
49320;SDS011;35817;44.498;0.166;2022-09-09T03:07:46;7.50;;;3.22;;
49320;SDS011;35817;44.498;0.166;2022-09-09T03:10:14;4.60;;;2.95;;
49320;SDS011;35817;44.498;0.166;2022-09-09T03:12:42;4.50;;;3.20;;
49320;SDS011;35817;44.498;0.166;2022-09-09T03:15:08;10.25;;;4.20;;
49320;SDS011;35817;44.498;0.166;2022-09-09T03:17:35;5.82;;;3.25;;
49320;SDS011;35817;44.498;0.166;2022-09-09T03:20:02;5.80;;;2.53;;
49320;SDS011;35817;44.498;0.166;2022-09-09T03:22:28;9.65;;;3.83;;
49320;SDS011;35817;44.498;0.166;2022-09-09T03:24:54;5.28;;;2.95;;
49320;SDS011;35817;44.498;0.166;2022-09-09T03:27:20;6.20;;;2.92;;
49320;SDS011;35817;44.498;0.166;2022-09-09T03:29:48;6.43;;;2.72;;
49320;SDS011;35817;44.498;0.166;2022-09-09T03:32:16;3.47;;;2.42;;
49320;SDS011;35817;44.498;0.166;2022-09-09T03:34:42;15.30;;;3.70;;
49320;SDS011;35817;44.498;0.166;2022-09-09T03:37:08;4.43;;;3.20;;
49320;SDS011;35817;44.498;0.166;2022-09-09T03:39:34;7.78;;;2.90;;
49320;SDS011;35817;44.498;0.166;2022-09-09T03:42:00;8.05;;;3.17;;
49320;SDS011;35817;44.498;0.166;2022-09-09T03:44:29;8.43;;;3.38;;
49320;SDS011;35817;44.498;0.166;2022-09-09T03:46:55;7.53;;;3.60;;
49320;SDS011;35817;44.498;0.166;2022-09-09T03:49:21;3.88;;;3.08;;
49320;SDS011;35817;44.498;0.166;2022-09-09T03:51:47;7.68;;;3.05;;
49320;SDS011;35817;44.498;0.166;2022-09-09T03:54:13;6.68;;;2.85;;
49320;SDS011;35817;44.498;0.166;2022-09-09T03:56:39;5.40;;;3.55;;
49320;SDS011;35817;44.498;0.166;2022-09-09T03:59:09;4.28;;;3.08;;
49320;SDS011;35817;44.498;0.166;2022-09-09T04:01:34;4.57;;;3.15;;
49320;SDS011;35817;44.498;0.166;2022-09-09T04:04:00;7.00;;;3.22;;
49320;SDS011;35817;44.498;0.166;2022-09-09T04:06:27;4.93;;;3.35;;
49320;SDS011;35817;44.498;0.166;2022-09-09T04:08:53;6.20;;;3.53;;
49320;SDS011;35817;44.498;0.166;2022-09-09T04:11:20;6.40;;;2.95;;
49320;SDS011;35817;44.498;0.166;2022-09-09T04:13:46;12.70;;;3.72;;
49320;SDS011;35817;44.498;0.166;2022-09-09T04:16:12;4.47;;;2.75;;
49320;SDS011;35817;44.498;0.166;2022-09-09T04:18:38;6.80;;;3.90;;
49320;SDS011;35817;44.498;0.166;2022-09-09T04:21:04;12.15;;;3.63;;
49320;SDS011;35817;44.498;0.166;2022-09-09T04:23:31;9.43;;;3.75;;
49320;SDS011;35817;44.498;0.166;2022-09-09T04:25:59;4.75;;;3.67;;
49320;SDS011;35817;44.498;0.166;2022-09-09T04:28:27;4.47;;;3.28;;
49320;SDS011;35817;44.498;0.166;2022-09-09T04:30:55;15.48;;;4.13;;
49320;SDS011;35817;44.498;0.166;2022-09-09T04:33:23;4.45;;;3.30;;
49320;SDS011;35817;44.498;0.166;2022-09-09T04:35:51;5.93;;;3.75;;
49320;SDS011;35817;44.498;0.166;2022-09-09T04:38:20;9.05;;;2.85;;
49320;SDS011;35817;44.498;0.166;2022-09-09T04:40:48;5.75;;;3.28;;
49320;SDS011;35817;44.498;0.166;2022-09-09T04:43:14;9.68;;;4.25;;
49320;SDS011;35817;44.498;0.166;2022-09-09T04:45:41;7.70;;;4.38;;
49320;SDS011;35817;44.498;0.166;2022-09-09T04:48:07;8.38;;;3.70;;
49320;SDS011;35817;44.498;0.166;2022-09-09T04:50:36;5.35;;;3.72;;
49320;SDS011;35817;44.498;0.166;2022-09-09T04:53:02;6.85;;;3.55;;
49320;SDS011;35817;44.498;0.166;2022-09-09T04:55:30;4.63;;;3.15;;
49320;SDS011;35817;44.498;0.166;2022-09-09T04:57:56;6.45;;;2.97;;
49320;SDS011;35817;44.498;0.166;2022-09-09T05:00:22;8.32;;;4.07;;
49320;SDS011;35817;44.498;0.166;2022-09-09T05:02:49;7.78;;;3.95;;
49320;SDS011;35817;44.498;0.166;2022-09-09T05:05:14;9.05;;;4.60;;
49320;SDS011;35817;44.498;0.166;2022-09-09T05:07:41;10.43;;;4.28;;
49320;SDS011;35817;44.498;0.166;2022-09-09T05:10:08;5.80;;;3.53;;
49320;SDS011;35817;44.498;0.166;2022-09-09T05:12:34;8.13;;;2.67;;
49320;SDS011;35817;44.498;0.166;2022-09-09T05:15:00;6.93;;;3.63;;
49320;SDS011;35817;44.498;0.166;2022-09-09T05:17:26;5.10;;;3.28;;
49320;SDS011;35817;44.498;0.166;2022-09-09T05:19:52;5.53;;;3.50;;
49320;SDS011;35817;44.498;0.166;2022-09-09T05:22:20;7.20;;;3.65;;
49320;SDS011;35817;44.498;0.166;2022-09-09T05:24:46;5.80;;;2.75;;
49320;SDS011;35817;44.498;0.166;2022-09-09T05:27:12;7.45;;;3.60;;
49320;SDS011;35817;44.498;0.166;2022-09-09T05:29:38;4.95;;;3.20;;
49320;SDS011;35817;44.498;0.166;2022-09-09T05:32:06;7.97;;;2.88;;
49320;SDS011;35817;44.498;0.166;2022-09-09T05:34:31;6.82;;;3.00;;
49320;SDS011;35817;44.498;0.166;2022-09-09T05:36:57;4.07;;;2.42;;
49320;SDS011;35817;44.498;0.166;2022-09-09T05:39:23;9.88;;;3.30;;
49320;SDS011;35817;44.498;0.166;2022-09-09T05:41:49;7.25;;;2.53;;
49320;SDS011;35817;44.498;0.166;2022-09-09T05:44:16;8.40;;;3.17;;
49320;SDS011;35817;44.498;0.166;2022-09-09T05:46:41;5.13;;;2.83;;
49320;SDS011;35817;44.498;0.166;2022-09-09T05:49:07;4.47;;;2.38;;
49320;SDS011;35817;44.498;0.166;2022-09-09T05:51:33;4.38;;;3.10;;
49320;SDS011;35817;44.498;0.166;2022-09-09T05:53:59;7.28;;;3.67;;
49320;SDS011;35817;44.498;0.166;2022-09-09T05:56:26;11.80;;;3.40;;
49320;SDS011;35817;44.498;0.166;2022-09-09T05:58:53;10.13;;;3.67;;
49320;SDS011;35817;44.498;0.166;2022-09-09T06:01:21;8.15;;;2.90;;
49320;SDS011;35817;44.498;0.166;2022-09-09T06:03:52;9.07;;;4.10;;
49320;SDS011;35817;44.498;0.166;2022-09-09T06:06:20;9.40;;;3.42;;
49320;SDS011;35817;44.498;0.166;2022-09-09T06:08:47;7.55;;;3.03;;
49320;SDS011;35817;44.498;0.166;2022-09-09T06:11:19;4.43;;;3.58;;
49320;SDS011;35817;44.498;0.166;2022-09-09T06:13:47;8.35;;;3.25;;
49320;SDS011;35817;44.498;0.166;2022-09-09T06:16:17;7.03;;;3.38;;
49320;SDS011;35817;44.498;0.166;2022-09-09T06:18:47;2.97;;;2.70;;
49320;SDS011;35817;44.498;0.166;2022-09-09T06:21:17;8.00;;;3.80;;
49320;SDS011;35817;44.498;0.166;2022-09-09T06:23:45;8.48;;;3.70;;
49320;SDS011;35817;44.498;0.166;2022-09-09T06:26:15;5.75;;;3.22;;
49320;SDS011;35817;44.498;0.166;2022-09-09T06:28:43;6.25;;;4.15;;
49320;SDS011;35817;44.498;0.166;2022-09-09T06:31:15;7.40;;;3.10;;
49320;SDS011;35817;44.498;0.166;2022-09-09T06:33:43;9.75;;;3.42;;
49320;SDS011;35817;44.498;0.166;2022-09-09T06:38:43;12.10;;;4.22;;
49320;SDS011;35817;44.498;0.166;2022-09-09T06:41:09;6.97;;;3.53;;
49320;SDS011;35817;44.498;0.166;2022-09-09T06:43:36;14.95;;;3.55;;
49320;SDS011;35817;44.498;0.166;2022-09-09T06:46:05;9.23;;;2.75;;
49320;SDS011;35817;44.498;0.166;2022-09-09T06:48:38;9.50;;;3.33;;
49320;SDS011;35817;44.498;0.166;2022-09-09T06:51:14;7.78;;;3.22;;
49320;SDS011;35817;44.498;0.166;2022-09-09T06:53:51;9.57;;;3.13;;
49320;SDS011;35817;44.498;0.166;2022-09-09T06:56:19;5.68;;;2.40;;
49320;SDS011;35817;44.498;0.166;2022-09-09T06:58:49;12.05;;;3.10;;
49320;SDS011;35817;44.498;0.166;2022-09-09T07:01:17;5.22;;;3.42;;
49320;SDS011;35817;44.498;0.166;2022-09-09T07:03:55;6.75;;;3.15;;
49320;SDS011;35817;44.498;0.166;2022-09-09T07:08:51;7.82;;;3.53;;
49320;SDS011;35817;44.498;0.166;2022-09-09T07:11:19;5.57;;;2.55;;
49320;SDS011;35817;44.498;0.166;2022-09-09T07:16:16;6.82;;;1.80;;
49320;SDS011;35817;44.498;0.166;2022-09-09T07:18:43;6.72;;;2.17;;
49320;SDS011;35817;44.498;0.166;2022-09-09T07:21:12;9.32;;;2.58;;
49320;SDS011;35817;44.498;0.166;2022-09-09T07:23:40;6.13;;;2.08;;
49320;SDS011;35817;44.498;0.166;2022-09-09T07:26:10;4.05;;;1.25;;
49320;SDS011;35817;44.498;0.166;2022-09-09T07:28:37;7.82;;;1.83;;
49320;SDS011;35817;44.498;0.166;2022-09-09T07:31:04;7.95;;;1.75;;
49320;SDS011;35817;44.498;0.166;2022-09-09T07:33:31;6.90;;;2.20;;
49320;SDS011;35817;44.498;0.166;2022-09-09T07:36:05;5.35;;;1.67;;
49320;SDS011;35817;44.498;0.166;2022-09-09T07:38:37;4.68;;;1.77;;
49320;SDS011;35817;44.498;0.166;2022-09-09T07:41:05;8.70;;;2.83;;
49320;SDS011;35817;44.498;0.166;2022-09-09T07:43:39;6.75;;;1.65;;
49320;SDS011;35817;44.498;0.166;2022-09-09T07:46:06;7.03;;;1.37;;
49320;SDS011;35817;44.498;0.166;2022-09-09T07:48:32;6.03;;;1.98;;
49320;SDS011;35817;44.498;0.166;2022-09-09T07:51:06;7.15;;;1.50;;
49320;SDS011;35817;44.498;0.166;2022-09-09T07:53:36;7.10;;;2.40;;
49320;SDS011;35817;44.498;0.166;2022-09-09T07:56:05;7.95;;;2.28;;
49320;SDS011;35817;44.498;0.166;2022-09-09T07:58:34;10.60;;;1.77;;
49320;SDS011;35817;44.498;0.166;2022-09-09T08:01:07;9.32;;;1.83;;
49320;SDS011;35817;44.498;0.166;2022-09-09T08:03:39;5.22;;;1.55;;
49320;SDS011;35817;44.498;0.166;2022-09-09T08:06:06;8.82;;;1.65;;
49320;SDS011;35817;44.498;0.166;2022-09-09T08:08:34;3.75;;;1.17;;
49320;SDS011;35817;44.498;0.166;2022-09-09T08:11:06;5.20;;;1.75;;
49320;SDS011;35817;44.498;0.166;2022-09-09T08:13:36;8.38;;;1.48;;
49320;SDS011;35817;44.498;0.166;2022-09-09T08:16:03;6.57;;;2.13;;
49320;SDS011;35817;44.498;0.166;2022-09-09T08:40:46;3.80;;;0.50;;
49320;SDS011;35817;44.498;0.166;2022-09-09T08:43:15;6.63;;;1.00;;
49320;SDS011;35817;44.498;0.166;2022-09-09T08:45:49;8.43;;;1.08;;
49320;SDS011;35817;44.498;0.166;2022-09-09T08:48:34;15.02;;;1.25;;
49320;SDS011;35817;44.498;0.166;2022-09-09T08:51:12;6.50;;;0.90;;
49320;SDS011;35817;44.498;0.166;2022-09-09T08:53:41;6.80;;;1.02;;
49320;SDS011;35817;44.498;0.166;2022-09-09T08:56:11;7.80;;;0.90;;
49320;SDS011;35817;44.498;0.166;2022-09-09T10:56:48;7.43;;;0.60;;
49320;SDS011;35817;44.498;0.166;2022-09-09T11:02:02;5.72;;;0.45;;
49320;SDS011;35817;44.498;0.166;2022-09-09T11:52:44;3.08;;;0.60;;
49320;SDS011;35817;44.498;0.166;2022-09-09T11:55:33;2.80;;;0.20;;
49320;SDS011;35817;44.498;0.166;2022-09-09T11:58:02;4.55;;;1.05;;
49320;SDS011;35817;44.498;0.166;2022-09-09T12:00:43;5.77;;;0.53;;
49320;SDS011;35817;44.498;0.166;2022-09-09T12:06:29;4.85;;;0.60;;
49320;SDS011;35817;44.498;0.166;2022-09-09T12:08:58;8.88;;;1.08;;
49320;SDS011;35817;44.498;0.166;2022-09-09T12:11:41;6.43;;;0.80;;
49320;SDS011;35817;44.498;0.166;2022-09-09T12:14:20;3.03;;;0.35;;
49320;SDS011;35817;44.498;0.166;2022-09-09T12:37:15;6.35;;;0.77;;
49320;SDS011;35817;44.498;0.166;2022-09-09T12:40:00;7.20;;;0.70;;
49320;SDS011;35817;44.498;0.166;2022-09-09T12:45:02;4.00;;;0.30;;
49320;SDS011;35817;44.498;0.166;2022-09-09T12:47:43;3.60;;;0.63;;
49320;SDS011;35817;44.498;0.166;2022-09-09T12:50:15;2.03;;;0.30;;
49320;SDS011;35817;44.498;0.166;2022-09-09T12:52:43;3.85;;;0.30;;
49320;SDS011;35817;44.498;0.166;2022-09-09T12:55:15;3.50;;;0.30;;
49320;SDS011;35817;44.498;0.166;2022-09-09T12:57:46;3.83;;;0.30;;
49320;SDS011;35817;44.498;0.166;2022-09-09T13:00:16;6.27;;;0.30;;
49320;SDS011;35817;44.498;0.166;2022-09-09T13:02:51;5.68;;;0.70;;
49320;SDS011;35817;44.498;0.166;2022-09-09T13:05:22;4.07;;;0.50;;
49320;SDS011;35817;44.498;0.166;2022-09-09T13:07:50;3.47;;;0.30;;
49320;SDS011;35817;44.498;0.166;2022-09-09T13:25:23;5.22;;;0.65;;
49320;SDS011;35817;44.498;0.166;2022-09-09T13:27:57;2.22;;;0.30;;
49320;SDS011;35817;44.498;0.166;2022-09-09T13:35:58;4.90;;;0.30;;
49320;SDS011;35817;44.498;0.166;2022-09-09T13:39:16;5.28;;;0.47;;
49320;SDS011;35817;44.498;0.166;2022-09-09T13:41:44;3.25;;;0.75;;
49320;SDS011;35817;44.498;0.166;2022-09-09T13:44:17;1.98;;;0.40;;
49320;SDS011;35817;44.498;0.166;2022-09-09T13:46:58;4.93;;;0.63;;
49320;SDS011;35817;44.498;0.166;2022-09-09T13:49:30;3.92;;;0.80;;
49320;SDS011;35817;44.498;0.166;2022-09-09T13:52:17;3.15;;;0.68;;
49320;SDS011;35817;44.498;0.166;2022-09-09T13:54:50;1.85;;;0.40;;
49320;SDS011;35817;44.498;0.166;2022-09-09T14:00:30;4.32;;;0.40;;
49320;SDS011;35817;44.498;0.166;2022-09-09T14:03:19;3.58;;;0.60;;
49320;SDS011;35817;44.498;0.166;2022-09-09T14:05:52;3.58;;;0.57;;
49320;SDS011;35817;44.498;0.166;2022-09-09T14:08:24;3.95;;;0.40;;
49320;SDS011;35817;44.498;0.166;2022-09-09T14:10:51;3.97;;;0.40;;
49320;SDS011;35817;44.498;0.166;2022-09-09T14:13:18;5.30;;;0.50;;
49320;SDS011;35817;44.498;0.166;2022-09-09T14:18:27;11.60;;;1.33;;
49320;SDS011;35817;44.498;0.166;2022-09-09T14:26:23;1.88;;;0.20;;
49320;SDS011;35817;44.498;0.166;2022-09-09T14:28:51;5.38;;;0.50;;
49320;SDS011;35817;44.498;0.166;2022-09-09T14:33:46;3.05;;;0.20;;
49320;SDS011;35817;44.498;0.166;2022-09-09T14:36:12;5.43;;;0.30;;
49320;SDS011;35817;44.498;0.166;2022-09-09T14:38:40;4.03;;;0.30;;
49320;SDS011;35817;44.498;0.166;2022-09-09T14:41:08;2.65;;;0.20;;
49320;SDS011;35817;44.498;0.166;2022-09-09T14:43:37;1.70;;;0.40;;
49320;SDS011;35817;44.498;0.166;2022-09-09T14:46:04;3.42;;;0.20;;
49320;SDS011;35817;44.498;0.166;2022-09-09T14:48:32;3.08;;;0.28;;
49320;SDS011;35817;44.498;0.166;2022-09-09T14:51:04;2.90;;;0.20;;
49320;SDS011;35817;44.498;0.166;2022-09-09T14:53:34;4.22;;;0.60;;
49320;SDS011;35817;44.498;0.166;2022-09-09T14:56:06;2.22;;;0.20;;
49320;SDS011;35817;44.498;0.166;2022-09-09T15:08:37;4.00;;;0.30;;
49320;SDS011;35817;44.498;0.166;2022-09-09T15:11:04;4.00;;;0.60;;
49320;SDS011;35817;44.498;0.166;2022-09-09T15:13:35;2.35;;;0.40;;
49320;SDS011;35817;44.498;0.166;2022-09-09T15:16:09;2.58;;;0.30;;
49320;SDS011;35817;44.498;0.166;2022-09-09T15:18:36;4.05;;;0.40;;
49320;SDS011;35817;44.498;0.166;2022-09-09T15:21:05;5.17;;;0.47;;
49320;SDS011;35817;44.498;0.166;2022-09-09T15:23:34;4.22;;;0.40;;
49320;SDS011;35817;44.498;0.166;2022-09-09T15:28:27;1.30;;;0.20;;
49320;SDS011;35817;44.498;0.166;2022-09-09T15:30:53;3.25;;;0.30;;
49320;SDS011;35817;44.498;0.166;2022-09-09T15:33:20;2.22;;;0.30;;
49320;SDS011;35817;44.498;0.166;2022-09-09T15:35:47;1.15;;;0.17;;
49320;SDS011;35817;44.498;0.166;2022-09-09T15:45:35;4.63;;;0.28;;
49320;SDS011;35817;44.498;0.166;2022-09-09T15:48:01;3.55;;;0.45;;
49320;SDS011;35817;44.498;0.166;2022-09-09T15:50:28;4.47;;;0.55;;
49320;SDS011;35817;44.498;0.166;2022-09-09T15:52:57;1.50;;;0.22;;
49320;SDS011;35817;44.498;0.166;2022-09-09T15:57:50;2.67;;;0.20;;
49320;SDS011;35817;44.498;0.166;2022-09-09T16:00:20;2.05;;;0.15;;
49320;SDS011;35817;44.498;0.166;2022-09-09T16:02:47;4.97;;;0.32;;
49320;SDS011;35817;44.498;0.166;2022-09-09T16:05:13;3.60;;;0.30;;
49320;SDS011;35817;44.498;0.166;2022-09-09T16:10:07;3.63;;;0.70;;
49320;SDS011;35817;44.498;0.166;2022-09-09T16:12:34;3.50;;;0.30;;
49320;SDS011;35817;44.498;0.166;2022-09-09T16:15:00;3.50;;;0.47;;
49320;SDS011;35817;44.498;0.166;2022-09-09T16:17:27;2.53;;;0.30;;
49320;SDS011;35817;44.498;0.166;2022-09-09T16:19:53;1.73;;;0.13;;
49320;SDS011;35817;44.498;0.166;2022-09-09T16:22:19;2.67;;;0.20;;
49320;SDS011;35817;44.498;0.166;2022-09-09T16:24:45;2.70;;;0.30;;
49320;SDS011;35817;44.498;0.166;2022-09-09T16:27:11;3.25;;;0.25;;
49320;SDS011;35817;44.498;0.166;2022-09-09T16:29:36;2.30;;;0.50;;
49320;SDS011;35817;44.498;0.166;2022-09-09T16:34:28;4.30;;;0.40;;
49320;SDS011;35817;44.498;0.166;2022-09-09T16:36:54;4.65;;;0.50;;
49320;SDS011;35817;44.498;0.166;2022-09-09T16:39:20;1.60;;;0.22;;
49320;SDS011;35817;44.498;0.166;2022-09-09T16:41:46;2.60;;;0.38;;
49320;SDS011;35817;44.498;0.166;2022-09-09T16:44:13;4.97;;;0.73;;
49320;SDS011;35817;44.498;0.166;2022-09-09T16:46:43;4.25;;;0.38;;
49320;SDS011;35817;44.498;0.166;2022-09-09T16:49:11;5.78;;;0.50;;
49320;SDS011;35817;44.498;0.166;2022-09-09T16:51:44;2.40;;;0.20;;
49320;SDS011;35817;44.498;0.166;2022-09-09T16:54:12;3.10;;;0.20;;
49320;SDS011;35817;44.498;0.166;2022-09-09T16:56:39;2.30;;;0.20;;
49320;SDS011;35817;44.498;0.166;2022-09-09T16:59:15;4.18;;;0.32;;
49320;SDS011;35817;44.498;0.166;2022-09-09T17:01:44;7.38;;;0.43;;
49320;SDS011;35817;44.498;0.166;2022-09-09T17:04:17;3.28;;;0.63;;
49320;SDS011;35817;44.498;0.166;2022-09-09T17:06:49;3.00;;;0.30;;
49320;SDS011;35817;44.498;0.166;2022-09-09T17:11:43;9.95;;;0.90;;
49320;SDS011;35817;44.498;0.166;2022-09-09T17:14:11;4.30;;;0.85;;
49320;SDS011;35817;44.498;0.166;2022-09-09T17:19:05;3.78;;;0.60;;
49320;SDS011;35817;44.498;0.166;2022-09-09T17:21:33;2.65;;;0.25;;
49320;SDS011;35817;44.498;0.166;2022-09-09T17:24:00;2.92;;;0.25;;
49320;SDS011;35817;44.498;0.166;2022-09-09T17:26:27;3.38;;;0.40;;
49320;SDS011;35817;44.498;0.166;2022-09-09T17:28:56;5.18;;;0.47;;
49320;SDS011;35817;44.498;0.166;2022-09-09T17:31:24;2.95;;;0.28;;
49320;SDS011;35817;44.498;0.166;2022-09-09T17:33:53;4.47;;;0.40;;
49320;SDS011;35817;44.498;0.166;2022-09-09T17:36:24;3.40;;;0.68;;
49320;SDS011;35817;44.498;0.166;2022-09-09T17:38:55;6.78;;;0.30;;
49320;SDS011;35817;44.498;0.166;2022-09-09T17:41:25;3.22;;;0.38;;
49320;SDS011;35817;44.498;0.166;2022-09-09T17:43:53;4.40;;;0.30;;
49320;SDS011;35817;44.498;0.166;2022-09-09T17:46:20;2.47;;;0.25;;
49320;SDS011;35817;44.498;0.166;2022-09-09T17:48:49;7.35;;;0.40;;
49320;SDS011;35817;44.498;0.166;2022-09-09T17:51:19;3.17;;;0.30;;
49320;SDS011;35817;44.498;0.166;2022-09-09T17:53:49;1.23;;;0.25;;
49320;SDS011;35817;44.498;0.166;2022-09-09T17:56:18;3.00;;;0.88;;
49320;SDS011;35817;44.498;0.166;2022-09-09T18:01:13;2.03;;;0.30;;
49320;SDS011;35817;44.498;0.166;2022-09-09T18:03:41;4.65;;;0.43;;
49320;SDS011;35817;44.498;0.166;2022-09-09T18:06:09;3.40;;;0.20;;
49320;SDS011;35817;44.498;0.166;2022-09-09T18:08:46;2.38;;;0.20;;
49320;SDS011;35817;44.498;0.166;2022-09-09T18:11:18;4.20;;;0.30;;
49320;SDS011;35817;44.498;0.166;2022-09-09T18:13:49;2.70;;;0.20;;
49320;SDS011;35817;44.498;0.166;2022-09-09T18:16:16;2.42;;;0.20;;
49320;SDS011;35817;44.498;0.166;2022-09-09T18:18:43;5.18;;;0.30;;
49320;SDS011;35817;44.498;0.166;2022-09-09T18:21:10;4.72;;;0.40;;
49320;SDS011;35817;44.498;0.166;2022-09-09T18:23:37;1.58;;;0.30;;
49320;SDS011;35817;44.498;0.166;2022-09-09T18:26:11;3.78;;;0.40;;
49320;SDS011;35817;44.498;0.166;2022-09-09T18:28:38;3.08;;;0.70;;
49320;SDS011;35817;44.498;0.166;2022-09-09T18:31:06;3.40;;;0.17;;
49320;SDS011;35817;44.498;0.166;2022-09-09T18:33:36;6.18;;;0.40;;
49320;SDS011;35817;44.498;0.166;2022-09-09T18:36:04;1.98;;;0.20;;
49320;SDS011;35817;44.498;0.166;2022-09-09T18:38:40;4.65;;;0.40;;
49320;SDS011;35817;44.498;0.166;2022-09-09T18:41:16;4.88;;;0.38;;
49320;SDS011;35817;44.498;0.166;2022-09-09T18:43:43;3.25;;;0.30;;
49320;SDS011;35817;44.498;0.166;2022-09-09T18:46:09;6.03;;;0.60;;
49320;SDS011;35817;44.498;0.166;2022-09-09T18:48:36;1.40;;;0.40;;
49320;SDS011;35817;44.498;0.166;2022-09-09T18:51:03;3.03;;;0.65;;
49320;SDS011;35817;44.498;0.166;2022-09-09T18:53:32;4.50;;;0.40;;
49320;SDS011;35817;44.498;0.166;2022-09-09T18:55:59;1.02;;;0.28;;
49320;SDS011;35817;44.498;0.166;2022-09-09T18:58:28;2.88;;;0.40;;
49320;SDS011;35817;44.498;0.166;2022-09-09T19:00:56;3.50;;;0.43;;
49320;SDS011;35817;44.498;0.166;2022-09-09T19:03:24;5.25;;;0.60;;
49320;SDS011;35817;44.498;0.166;2022-09-09T19:05:51;9.00;;;4.88;;
49320;SDS011;35817;44.498;0.166;2022-09-09T19:08:17;12.85;;;5.32;;
49320;SDS011;35817;44.498;0.166;2022-09-09T19:10:46;9.88;;;2.40;;
49320;SDS011;35817;44.498;0.166;2022-09-09T19:13:12;8.43;;;2.95;;
49320;SDS011;35817;44.498;0.166;2022-09-09T19:15:38;3.33;;;1.02;;
49320;SDS011;35817;44.498;0.166;2022-09-09T19:18:05;4.15;;;1.65;;
49320;SDS011;35817;44.498;0.166;2022-09-09T19:20:31;11.15;;;1.30;;
49320;SDS011;35817;44.498;0.166;2022-09-09T19:22:56;3.95;;;0.93;;
49320;SDS011;35817;44.498;0.166;2022-09-09T19:25:23;6.47;;;0.43;;
49320;SDS011;35817;44.498;0.166;2022-09-09T19:27:49;3.85;;;1.00;;
49320;SDS011;35817;44.498;0.166;2022-09-09T19:30:15;6.35;;;0.55;;
49320;SDS011;35817;44.498;0.166;2022-09-09T19:32:41;2.55;;;0.47;;
49320;SDS011;35817;44.498;0.166;2022-09-09T19:35:07;6.93;;;1.02;;
49320;SDS011;35817;44.498;0.166;2022-09-09T19:37:34;2.40;;;0.40;;
49320;SDS011;35817;44.498;0.166;2022-09-09T19:39:59;2.38;;;0.40;;
49320;SDS011;35817;44.498;0.166;2022-09-09T19:42:26;2.28;;;0.38;;
49320;SDS011;35817;44.498;0.166;2022-09-09T19:44:54;1.70;;;0.30;;
49320;SDS011;35817;44.498;0.166;2022-09-09T19:47:21;4.10;;;0.40;;
49320;SDS011;35817;44.498;0.166;2022-09-09T19:49:48;5.00;;;0.35;;
49320;SDS011;35817;44.498;0.166;2022-09-09T19:52:17;2.25;;;0.20;;
49320;SDS011;35817;44.498;0.166;2022-09-09T19:54:43;2.17;;;0.28;;
49320;SDS011;35817;44.498;0.166;2022-09-09T19:57:10;1.95;;;0.35;;
49320;SDS011;35817;44.498;0.166;2022-09-09T19:59:36;2.70;;;0.30;;
49320;SDS011;35817;44.498;0.166;2022-09-09T20:02:02;4.30;;;0.47;;
49320;SDS011;35817;44.498;0.166;2022-09-09T20:04:27;2.85;;;0.32;;
49320;SDS011;35817;44.498;0.166;2022-09-09T20:06:53;3.08;;;0.55;;
49320;SDS011;35817;44.498;0.166;2022-09-09T20:09:19;3.78;;;0.60;;
49320;SDS011;35817;44.498;0.166;2022-09-09T20:11:46;5.05;;;0.43;;
49320;SDS011;35817;44.498;0.166;2022-09-09T20:14:13;1.55;;;0.20;;
49320;SDS011;35817;44.498;0.166;2022-09-09T20:16:40;3.25;;;0.20;;
49320;SDS011;35817;44.498;0.166;2022-09-09T20:19:10;6.35;;;0.77;;
49320;SDS011;35817;44.498;0.166;2022-09-09T20:21:37;4.70;;;0.57;;
49320;SDS011;35817;44.498;0.166;2022-09-09T20:24:06;3.30;;;0.28;;
49320;SDS011;35817;44.498;0.166;2022-09-09T20:26:33;5.57;;;1.08;;
49320;SDS011;35817;44.498;0.166;2022-09-09T20:29:02;5.75;;;0.45;;
49320;SDS011;35817;44.498;0.166;2022-09-09T20:31:33;2.20;;;0.60;;
49320;SDS011;35817;44.498;0.166;2022-09-09T20:34:01;5.38;;;0.75;;
49320;SDS011;35817;44.498;0.166;2022-09-09T20:36:30;4.10;;;0.30;;
49320;SDS011;35817;44.498;0.166;2022-09-09T20:38:59;3.33;;;0.40;;